createdAt,value
2022-09-28T00:01:17.524Z,2.03
2022-09-28T00:03:48.244Z,2.10
2022-09-28T00:06:16.802Z,2.08
2022-09-28T00:08:43.334Z,2.20
2022-09-28T00:11:12.886Z,2.03
2022-09-28T00:13:40.314Z,2.17
2022-09-28T00:16:08.995Z,2.47
2022-09-28T00:18:36.195Z,2.65
2022-09-28T00:21:11.166Z,2.10
2022-09-28T00:23:56.221Z,2.20
2022-09-28T00:26:23.287Z,2.20
2022-09-28T00:28:54.004Z,2.70
2022-09-28T00:31:21.296Z,2.40
2022-09-28T00:33:52.065Z,2.40
2022-09-28T00:36:21.201Z,2.40
2022-09-28T00:38:48.389Z,2.30
2022-09-28T00:41:16.089Z,2.57
2022-09-28T00:43:46.223Z,2.60
2022-09-28T00:46:23.792Z,2.60
2022-09-28T00:48:57.883Z,2.80
2022-09-28T00:51:25.576Z,2.60
2022-09-28T00:53:56.186Z,2.40
2022-09-28T00:56:25.507Z,2.80
2022-09-28T00:58:53.486Z,2.42
2022-09-28T01:01:20.603Z,2.50
2022-09-28T01:03:50.817Z,3.00
2022-09-28T01:06:20.502Z,2.67
2022-09-28T01:08:50.555Z,2.90
2022-09-28T01:11:18.637Z,2.75
2022-09-28T01:13:46.596Z,2.85
2022-09-28T01:16:28.539Z,3.00
2022-09-28T01:19:24.797Z,2.87
2022-09-28T01:22:01.843Z,2.88
2022-09-28T01:24:41.032Z,3.10
2022-09-28T01:27:16.006Z,3.17
2022-09-28T01:30:04.967Z,2.90
2022-09-28T01:32:50.107Z,2.40
2022-09-28T01:35:31.825Z,2.47
2022-09-28T01:38:17.289Z,2.80
2022-09-28T01:40:44.530Z,2.90
2022-09-28T01:43:18.107Z,2.55
2022-09-28T01:45:47.907Z,2.37
2022-09-28T01:48:19.550Z,2.08
2022-09-28T01:50:48.582Z,2.10
2022-09-28T01:53:35.508Z,2.50
2022-09-28T01:56:24.461Z,2.05
2022-09-28T01:58:55.477Z,1.83
2022-09-28T02:01:28.330Z,2.00
2022-09-28T02:04:07.160Z,1.67
2022-09-28T02:06:42.105Z,1.70
2022-09-28T02:09:11.914Z,2.15
2022-09-28T02:11:42.461Z,1.90
2022-09-28T02:14:11.623Z,2.30
2022-09-28T02:16:41.833Z,2.10
2022-09-28T02:19:17.975Z,2.10
2022-09-28T02:22:03.080Z,2.25
2022-09-28T02:24:39.543Z,2.43
2022-09-28T02:27:14.796Z,2.30
2022-09-28T02:29:41.530Z,2.00
2022-09-28T02:32:07.990Z,2.15
2022-09-28T02:34:35.449Z,2.40
2022-09-28T02:37:02.099Z,2.23
2022-09-28T02:39:28.521Z,2.10
2022-09-28T02:42:29.744Z,2.15
2022-09-28T02:45:24.674Z,2.50
2022-09-28T02:48:19.101Z,2.40
2022-09-28T02:51:01.043Z,3.00
2022-09-28T02:54:06.234Z,2.58
2022-09-28T02:56:47.483Z,2.70
2022-09-28T02:59:24.424Z,2.88
2022-09-28T03:02:06.574Z,2.65
2022-09-28T03:04:37.533Z,2.47
2022-09-28T03:07:07.568Z,2.85
2022-09-28T03:09:37.898Z,2.95
2022-09-28T03:12:08.830Z,2.92
2022-09-28T03:14:35.492Z,2.35
2022-09-28T03:17:01.980Z,3.27
2022-09-28T03:19:32.471Z,3.40
2022-09-28T03:21:59.592Z,3.47
2022-09-28T03:24:26.365Z,3.72
2022-09-28T03:26:52.822Z,3.90
2022-09-28T03:29:20.486Z,3.87
2022-09-28T03:31:47.902Z,3.92
2022-09-28T03:34:14.516Z,4.32
2022-09-28T03:36:40.958Z,3.85
2022-09-28T03:39:07.381Z,4.10
2022-09-28T03:41:33.852Z,4.37
2022-09-28T03:44:00.326Z,4.00
2022-09-28T03:46:27.378Z,4.65
2022-09-28T03:48:57.682Z,4.60
2022-09-28T03:51:24.106Z,4.50
2022-09-28T03:53:50.514Z,4.83
2022-09-28T03:56:17.482Z,4.80
2022-09-28T03:58:43.914Z,4.80
2022-09-28T04:01:16.905Z,4.88
2022-09-28T04:03:44.586Z,5.53
2022-09-28T04:06:11.363Z,5.63
2022-09-28T04:08:37.803Z,5.30
2022-09-28T04:11:04.348Z,4.88
2022-09-28T04:13:31.017Z,5.68
2022-09-28T04:15:59.809Z,5.57
2022-09-28T04:18:26.488Z,5.47
2022-09-28T04:21:06.661Z,5.85
2022-09-28T04:23:35.369Z,5.45
2022-09-28T04:26:03.984Z,5.30
2022-09-28T04:28:48.923Z,5.28
2022-09-28T04:31:18.193Z,5.80
2022-09-28T04:33:44.700Z,6.80
2022-09-28T04:36:11.225Z,6.68
2022-09-28T04:38:52.350Z,6.55
2022-09-28T04:41:19.819Z,6.15
2022-09-28T04:43:50.035Z,5.83
2022-09-28T04:46:16.701Z,5.85
2022-09-28T04:48:43.250Z,6.03
2022-09-28T04:51:09.695Z,5.50
2022-09-28T04:53:36.195Z,5.47
2022-09-28T04:56:08.159Z,5.70
2022-09-28T04:58:35.708Z,5.80
2022-09-28T05:01:08.530Z,5.85
2022-09-28T05:03:35.208Z,5.72
2022-09-28T05:06:01.656Z,5.95
2022-09-28T05:08:28.096Z,6.40
2022-09-28T05:11:02.657Z,6.05
2022-09-28T05:13:29.643Z,5.97
2022-09-28T05:16:00.608Z,6.85
2022-09-28T05:18:29.844Z,6.53
2022-09-28T05:20:56.263Z,6.77
2022-09-28T05:23:22.697Z,5.90
2022-09-28T05:25:49.242Z,6.00
2022-09-28T05:28:27.236Z,6.13
2022-09-28T05:30:55.551Z,5.50
2022-09-28T05:33:22.012Z,5.30
2022-09-28T05:35:54.410Z,5.72
2022-09-28T05:38:22.893Z,5.25
2022-09-28T05:40:49.594Z,4.78
2022-09-28T05:43:16.054Z,4.85
2022-09-28T05:45:42.663Z,5.30
2022-09-28T05:48:09.114Z,4.97
2022-09-28T05:50:35.822Z,5.13
2022-09-28T05:53:08.351Z,4.90
2022-09-28T05:55:36.136Z,4.78
2022-09-28T05:58:04.876Z,5.07
2022-09-28T06:00:33.290Z,5.13
2022-09-28T06:03:21.300Z,4.93
2022-09-28T06:05:47.787Z,4.00
2022-09-28T06:08:14.271Z,3.70
2022-09-28T06:10:40.968Z,4.23
2022-09-28T06:13:08.014Z,3.67
2022-09-28T06:15:35.692Z,3.28
2022-09-28T06:18:04.685Z,3.85
2022-09-28T06:20:36.611Z,3.53
2022-09-28T06:23:03.437Z,4.20
2022-09-28T06:25:29.890Z,3.45
2022-09-28T06:28:04.784Z,3.55
2022-09-28T06:30:33.445Z,3.58
2022-09-28T06:33:01.941Z,3.40
2022-09-28T06:35:30.450Z,3.70
2022-09-28T06:37:57.741Z,3.63
2022-09-28T06:40:24.947Z,3.85
2022-09-28T06:43:12.539Z,4.32
2022-09-28T06:45:39.240Z,4.43
2022-09-28T06:48:06.575Z,4.27
2022-09-28T06:50:35.939Z,4.55
2022-09-28T06:53:02.548Z,4.30
2022-09-28T06:55:29.130Z,4.00
2022-09-28T06:58:00.399Z,4.45
2022-09-28T07:00:28.531Z,4.20
2022-09-28T07:02:54.977Z,4.53
2022-09-28T07:05:26.699Z,4.30
2022-09-28T07:07:59.011Z,4.60
2022-09-28T07:10:28.457Z,4.65
2022-09-28T07:12:56.653Z,4.53
2022-09-28T07:15:24.043Z,4.80
2022-09-28T07:18:00.710Z,4.95
2022-09-28T07:20:28.729Z,4.60
2022-09-28T07:22:56.412Z,4.38
2022-09-28T07:25:24.314Z,5.10
2022-09-28T07:27:50.749Z,4.50
2022-09-28T07:30:17.644Z,4.80
2022-09-28T07:32:45.356Z,4.32
2022-09-28T07:35:11.780Z,4.93
2022-09-28T07:37:38.932Z,4.90
2022-09-28T07:40:25.881Z,4.53
2022-09-28T07:42:52.464Z,5.13
2022-09-28T07:45:20.752Z,4.90
2022-09-28T07:47:47.205Z,5.72
2022-09-28T07:50:13.702Z,4.90
2022-09-28T07:52:40.156Z,5.93
2022-09-28T07:55:07.601Z,5.20
2022-09-28T07:57:34.767Z,5.30
2022-09-28T08:00:02.279Z,5.43
2022-09-28T08:02:28.847Z,5.20
2022-09-28T08:04:56.375Z,5.80
2022-09-28T08:07:24.178Z,5.70
2022-09-28T08:09:51.084Z,5.55
2022-09-28T08:12:19.702Z,5.97
2022-09-28T08:14:47.109Z,5.63
2022-09-28T08:17:13.667Z,5.45
2022-09-28T08:19:58.509Z,5.55
2022-09-28T08:22:24.957Z,5.63
2022-09-28T08:24:51.463Z,5.70
2022-09-28T08:27:18.425Z,6.80
2022-09-28T08:29:44.882Z,5.95
2022-09-28T08:32:11.309Z,5.47
2022-09-28T08:34:39.035Z,5.55
2022-09-28T08:37:06.300Z,6.05
2022-09-28T08:39:34.529Z,5.83
2022-09-28T08:42:36.064Z,6.03
2022-09-28T08:45:08.434Z,5.95
2022-09-28T08:48:02.673Z,5.90
2022-09-28T08:50:32.116Z,5.75
2022-09-28T08:53:07.407Z,5.43
2022-09-28T08:55:37.267Z,6.10
2022-09-28T08:58:28.279Z,5.55
2022-09-28T09:00:54.813Z,5.82
2022-09-28T09:03:23.790Z,6.22
2022-09-28T09:06:18.622Z,6.10
2022-09-28T09:09:10.882Z,6.40
2022-09-28T09:12:14.967Z,6.00
2022-09-28T09:14:50.602Z,6.05
2022-09-28T09:17:35.865Z,6.85
2022-09-28T09:20:05.277Z,6.23
2022-09-28T09:22:48.545Z,6.65
2022-09-28T09:25:20.799Z,5.70
2022-09-28T09:28:07.924Z,6.15
2022-09-28T09:30:47.093Z,5.40
2022-09-28T09:33:42.350Z,5.37
2022-09-28T09:36:30.297Z,5.55
2022-09-28T09:39:06.720Z,5.45
2022-09-28T09:41:38.971Z,5.65
2022-09-28T09:44:15.975Z,5.38
2022-09-28T09:46:56.784Z,5.50
2022-09-28T09:49:24.636Z,5.70
2022-09-28T09:52:10.072Z,5.53
2022-09-28T09:54:44.624Z,5.28
2022-09-28T09:57:19.608Z,5.93
2022-09-28T09:59:47.454Z,5.63
2022-09-28T10:02:26.291Z,5.28
2022-09-28T10:04:56.102Z,5.28
2022-09-28T10:07:26.728Z,5.40
2022-09-28T10:09:57.080Z,5.60
2022-09-28T10:12:24.362Z,5.63
2022-09-28T10:14:50.881Z,5.65
2022-09-28T10:17:20.146Z,5.72
2022-09-28T10:19:46.731Z,5.50
2022-09-28T10:22:21.709Z,5.63
2022-09-28T10:24:51.265Z,5.77
2022-09-28T10:27:20.072Z,6.22
2022-09-28T10:29:53.626Z,5.18
2022-09-28T10:32:25.451Z,4.45
2022-09-28T10:34:53.173Z,4.38
2022-09-28T10:37:19.664Z,4.30
2022-09-28T10:39:51.202Z,3.92
2022-09-28T10:42:29.779Z,4.05
2022-09-28T10:45:25.615Z,4.18
2022-09-28T10:47:52.222Z,4.93
2022-09-28T10:50:26.772Z,4.97
2022-09-28T10:52:53.315Z,5.18
2022-09-28T10:55:28.951Z,4.65
2022-09-28T10:57:55.419Z,5.20
2022-09-28T11:00:57.220Z,4.53
2022-09-28T11:03:25.857Z,4.80
2022-09-28T11:06:07.510Z,4.53
2022-09-28T11:08:42.873Z,3.80
2022-09-28T11:11:16.906Z,4.45
2022-09-28T11:14:21.037Z,3.60
2022-09-28T11:16:47.505Z,3.43
2022-09-28T11:19:20.666Z,3.55
2022-09-28T11:21:47.134Z,3.70
2022-09-28T11:24:22.077Z,3.45
2022-09-28T11:26:52.891Z,3.90
2022-09-28T11:29:42.189Z,3.70
2022-09-28T11:32:14.887Z,3.55
2022-09-28T11:34:59.092Z,3.75
2022-09-28T11:37:52.880Z,3.70
2022-09-28T11:40:25.132Z,3.47
2022-09-28T11:43:15.937Z,3.10
2022-09-28T11:45:52.485Z,3.28
2022-09-28T11:48:24.049Z,2.60
2022-09-28T11:50:58.721Z,2.40
2022-09-28T11:53:30.978Z,2.60
2022-09-28T11:56:28.342Z,2.40
2022-09-28T11:59:06.656Z,2.20
2022-09-28T12:01:52.335Z,2.17
2022-09-28T12:04:26.606Z,1.73
2022-09-28T12:06:58.301Z,1.35
2022-09-28T12:09:36.184Z,1.30
2022-09-28T12:12:10.391Z,1.30
2022-09-28T12:14:40.007Z,1.25
2022-09-28T12:17:28.924Z,1.10
2022-09-28T12:20:01.712Z,1.10
2022-09-28T12:22:42.283Z,1.10
2022-09-28T12:25:13.513Z,1.05
2022-09-28T12:28:01.701Z,0.93
2022-09-28T12:30:32.485Z,0.90
2022-09-28T12:33:13.836Z,0.80
2022-09-28T12:35:57.055Z,0.90
2022-09-28T12:38:23.426Z,1.00
2022-09-28T12:40:59.103Z,0.90
2022-09-28T12:43:34.596Z,1.02
2022-09-28T12:46:30.583Z,0.90
2022-09-28T12:52:12.753Z,0.70
2022-09-28T12:55:05.333Z,0.95
2022-09-28T12:57:40.274Z,1.05
2022-09-28T13:00:15.799Z,1.25
2022-09-28T13:03:07.866Z,1.20
2022-09-28T13:05:55.763Z,1.23
2022-09-28T13:08:41.361Z,1.13
2022-09-28T13:11:34.157Z,1.30
2022-09-28T13:14:28.336Z,1.50
2022-09-28T13:17:11.019Z,1.60
2022-09-28T13:19:51.670Z,2.05
2022-09-28T13:22:27.098Z,1.92
2022-09-28T13:24:55.870Z,1.60
2022-09-28T13:27:34.859Z,1.45
2022-09-28T13:30:03.905Z,1.40
2022-09-28T13:32:31.494Z,1.65
2022-09-28T13:34:58.748Z,1.42
2022-09-28T13:37:25.862Z,1.40
2022-09-28T13:39:59.408Z,1.55
2022-09-28T13:42:44.628Z,1.33
2022-09-28T13:45:20.040Z,1.40
2022-09-28T13:48:16.572Z,1.50
2022-09-28T13:50:56.878Z,1.42
2022-09-28T13:53:45.175Z,1.58
2022-09-28T13:56:20.436Z,1.53
2022-09-28T13:58:51.496Z,1.58
2022-09-28T14:01:22.047Z,1.50
2022-09-28T14:03:54.981Z,1.67
2022-09-28T14:06:31.906Z,1.50
2022-09-28T14:09:18.684Z,1.20
2022-09-28T14:12:27.682Z,1.25
2022-09-28T14:14:54.256Z,1.30
2022-09-28T14:17:23.658Z,1.67
2022-09-28T14:20:09.129Z,1.40
2022-09-28T14:22:44.889Z,1.50
2022-09-28T14:25:11.400Z,1.63
2022-09-28T14:27:41.936Z,1.40
2022-09-28T14:30:24.933Z,1.33
2022-09-28T14:32:55.285Z,1.50
2022-09-28T14:35:27.824Z,1.37
2022-09-28T14:38:17.990Z,1.50
2022-09-28T14:41:12.706Z,1.35
2022-09-28T14:43:45.183Z,1.42
2022-09-28T14:46:11.666Z,1.50
2022-09-28T14:48:45.929Z,1.57
2022-09-28T14:51:35.452Z,1.20
2022-09-28T14:54:08.245Z,1.63
2022-09-28T14:56:57.144Z,1.52
2022-09-28T14:59:24.932Z,2.40
2022-09-28T15:01:57.764Z,2.00
2022-09-28T15:04:28.119Z,2.25
2022-09-28T15:06:54.864Z,1.90
2022-09-28T15:09:38.262Z,1.40
2022-09-28T15:12:12.168Z,2.40
2022-09-28T15:14:55.278Z,1.23
2022-09-28T15:17:38.532Z,1.55
2022-09-28T15:20:17.265Z,1.83
2022-09-28T15:22:48.821Z,2.10
2022-09-28T15:25:19.986Z,1.83
2022-09-28T15:27:52.600Z,1.90
2022-09-28T15:30:22.941Z,1.90
2022-09-28T15:32:49.893Z,1.80
2022-09-28T15:35:20.951Z,1.90
2022-09-28T15:37:54.890Z,1.80
2022-09-28T15:40:27.088Z,2.20
2022-09-28T15:42:59.197Z,2.30
2022-09-28T15:45:34.958Z,1.90
2022-09-28T15:48:31.052Z,2.58
2022-09-28T15:51:10.845Z,2.10
2022-09-28T15:54:02.106Z,2.30
2022-09-28T15:56:29.418Z,2.17
2022-09-28T15:59:10.955Z,2.30
2022-09-28T16:01:39.723Z,2.20
2022-09-28T16:04:32.818Z,2.45
2022-09-28T16:07:18.436Z,2.30
2022-09-28T16:10:13.606Z,2.22
2022-09-28T16:12:39.945Z,2.30
2022-09-28T16:15:25.139Z,2.40
2022-09-28T16:17:55.867Z,2.38
2022-09-28T16:20:32.131Z,2.20
2022-09-28T16:23:05.896Z,2.42
2022-09-28T16:25:35.808Z,2.53
2022-09-28T16:28:02.247Z,2.60
2022-09-28T16:30:33.613Z,2.65
2022-09-28T16:33:05.675Z,2.70
2022-09-28T16:35:34.763Z,2.50
2022-09-28T16:38:14.349Z,2.35
2022-09-28T16:40:42.664Z,2.30
2022-09-28T16:43:17.535Z,2.50
2022-09-28T16:45:44.176Z,2.67
2022-09-28T16:48:16.329Z,3.17
2022-09-28T16:50:42.988Z,3.38
2022-09-28T16:53:35.806Z,6.60
2022-09-28T16:56:03.642Z,6.13
2022-09-28T16:58:31.495Z,5.33
2022-09-28T17:06:31.381Z,4.80
2022-09-28T17:08:58.698Z,4.03
2022-09-28T17:17:06.718Z,5.95
2022-09-28T17:19:31.335Z,6.65
2022-09-28T17:21:57.863Z,6.05
2022-09-28T17:24:24.308Z,5.67
2022-09-28T17:26:51.770Z,5.95
2022-09-28T17:29:18.936Z,6.50
2022-09-28T17:31:46.558Z,5.50
2022-09-28T17:34:16.750Z,8.13
2022-09-28T17:36:43.455Z,7.97
2022-09-28T17:39:14.672Z,7.95
2022-09-28T17:41:41.477Z,8.93
2022-09-28T17:44:08.678Z,8.20
2022-09-28T17:46:39.489Z,7.43
2022-09-28T17:49:07.543Z,7.87
2022-09-28T17:51:37.482Z,7.95
2022-09-28T17:54:06.575Z,7.78
2022-09-28T17:56:33.118Z,7.15
2022-09-28T17:59:07.768Z,7.47
2022-09-28T18:01:37.812Z,7.70
2022-09-28T18:04:08.125Z,7.28
2022-09-28T18:06:35.085Z,7.78
2022-09-28T18:09:03.112Z,8.10
2022-09-28T18:11:30.600Z,7.55
2022-09-28T18:13:58.236Z,7.17
2022-09-28T18:16:28.534Z,7.25
2022-09-28T18:18:55.551Z,7.28
2022-09-28T18:21:22.081Z,6.85
2022-09-28T18:23:51.604Z,6.70
2022-09-28T18:26:21.256Z,6.07
2022-09-28T18:28:47.809Z,6.00
2022-09-28T18:31:15.635Z,6.45
2022-09-28T18:33:43.307Z,6.53
2022-09-28T18:36:09.878Z,6.82
2022-09-28T18:38:36.958Z,6.73
2022-09-28T18:41:11.974Z,6.45
2022-09-28T18:43:38.556Z,6.50
2022-09-28T18:46:07.431Z,6.80
2022-09-28T18:48:34.076Z,7.13
2022-09-28T18:51:00.540Z,7.73
2022-09-28T18:53:27.139Z,7.15
2022-09-28T18:55:53.726Z,7.20
2022-09-28T18:58:20.171Z,7.40
2022-09-28T19:00:46.644Z,7.85
2022-09-28T19:03:14.410Z,7.83
2022-09-28T19:05:42.593Z,8.25
2022-09-28T19:08:09.917Z,7.60
2022-09-28T19:10:36.688Z,7.55
2022-09-28T19:13:03.181Z,8.23
2022-09-28T19:15:29.697Z,8.80
2022-09-28T19:17:57.123Z,8.50
2022-09-28T19:20:23.637Z,8.38
2022-09-28T19:22:50.762Z,8.55
2022-09-28T19:25:17.415Z,8.05
2022-09-28T19:27:44.279Z,8.50
2022-09-28T19:30:11.253Z,8.98
2022-09-28T19:32:37.921Z,8.35
2022-09-28T19:35:05.142Z,8.57
2022-09-28T19:37:35.413Z,8.50
2022-09-28T19:40:05.830Z,8.30
2022-09-28T19:42:32.814Z,7.93
2022-09-28T19:44:59.455Z,8.50
2022-09-28T19:47:26.077Z,7.85
2022-09-28T19:49:53.494Z,7.28
2022-09-28T19:52:20.005Z,8.20
2022-09-28T19:54:58.697Z,7.63
2022-09-28T19:57:30.580Z,7.35
2022-09-28T20:00:02.131Z,8.73
2022-09-28T20:02:29.608Z,8.45
2022-09-28T20:04:56.170Z,8.30
2022-09-28T20:07:22.661Z,8.05
2022-09-28T20:09:49.160Z,9.02
2022-09-28T20:12:15.751Z,8.50
2022-09-28T20:14:42.275Z,7.90
2022-09-28T20:17:09.678Z,8.60
2022-09-28T20:19:36.190Z,8.20
2022-09-28T20:22:03.163Z,7.78
2022-09-28T20:24:31.360Z,7.85
2022-09-28T20:27:00.125Z,7.03
2022-09-28T20:29:26.774Z,7.23
2022-09-28T20:31:54.992Z,7.65
2022-09-28T20:34:21.508Z,7.40
2022-09-28T20:36:48.664Z,7.43
2022-09-28T20:39:15.479Z,7.22
2022-09-28T20:41:42.413Z,7.00
2022-09-28T20:44:09.583Z,6.80
2022-09-28T20:46:36.901Z,6.57
2022-09-28T20:49:04.599Z,7.00
2022-09-28T20:51:31.672Z,6.63
2022-09-28T20:53:58.882Z,7.50
2022-09-28T20:56:30.704Z,6.57
2022-09-28T20:58:57.515Z,6.90
2022-09-28T21:01:29.844Z,7.22
2022-09-28T21:03:58.063Z,6.47
2022-09-28T21:06:29.826Z,7.13
2022-09-28T21:08:56.684Z,6.70
2022-09-28T21:11:24.700Z,7.63
2022-09-28T21:13:57.220Z,7.05
2022-09-28T21:16:24.646Z,6.32
2022-09-28T21:18:51.192Z,7.40
2022-09-28T21:21:21.374Z,7.32
2022-09-28T21:23:48.163Z,8.00
2022-09-28T21:26:25.040Z,8.32
2022-09-28T21:28:53.846Z,7.05
2022-09-28T21:31:26.085Z,8.13
2022-09-28T21:33:55.269Z,7.50
2022-09-28T21:36:21.822Z,7.10
2022-09-28T21:38:48.290Z,6.60
2022-09-28T21:41:15.058Z,6.68
2022-09-28T21:43:41.512Z,6.87
2022-09-28T21:46:07.983Z,7.03
2022-09-28T21:48:34.493Z,8.48
2022-09-28T21:51:06.179Z,7.70
2022-09-28T21:53:35.067Z,7.18
2022-09-28T21:56:02.359Z,7.70
2022-09-28T21:58:31.154Z,7.32
2022-09-28T22:01:06.852Z,7.70
2022-09-28T22:03:35.258Z,7.32
2022-09-28T22:06:03.294Z,8.30
2022-09-28T22:08:29.856Z,8.07
2022-09-28T22:11:06.739Z,8.07
2022-09-28T22:13:40.311Z,7.10
2022-09-28T22:16:07.436Z,7.47
2022-09-28T22:18:34.513Z,7.60
2022-09-28T22:21:12.030Z,7.70
2022-09-28T22:23:39.119Z,7.43
2022-09-28T22:26:11.132Z,9.10
2022-09-28T22:28:38.182Z,9.15
2022-09-28T22:31:04.829Z,9.65
2022-09-28T22:33:31.531Z,9.83
2022-09-28T22:35:57.997Z,9.95
2022-09-28T22:38:24.921Z,9.30
2022-09-28T22:40:54.613Z,9.55
2022-09-28T22:43:23.405Z,9.50
2022-09-28T22:45:50.235Z,9.33
2022-09-28T22:48:18.574Z,8.77
2022-09-28T22:50:51.573Z,8.55
2022-09-28T22:53:18.875Z,9.00
2022-09-28T22:55:45.558Z,9.23
2022-09-28T22:58:12.246Z,9.20
2022-09-28T23:00:38.719Z,9.48
2022-09-28T23:03:05.367Z,10.18
2022-09-28T23:05:31.996Z,10.55
2022-09-28T23:07:58.461Z,10.05
2022-09-28T23:10:24.935Z,10.30
2022-09-28T23:12:53.467Z,9.82
2022-09-28T23:15:20.992Z,9.57
2022-09-28T23:17:53.995Z,9.48
2022-09-28T23:20:21.175Z,9.10
2022-09-28T23:22:48.023Z,7.70
2022-09-28T23:25:17.713Z,8.13
2022-09-28T23:27:48.763Z,8.05
2022-09-28T23:30:16.831Z,6.43
2022-09-28T23:32:44.932Z,6.75
2022-09-28T23:35:11.818Z,6.30
2022-09-28T23:37:38.784Z,7.05
2022-09-28T23:40:06.260Z,6.55
2022-09-28T23:42:34.696Z,5.80
2022-09-28T23:45:03.592Z,5.85
2022-09-28T23:47:30.069Z,5.83
2022-09-28T23:49:56.545Z,5.20
2022-09-28T23:52:23.004Z,5.15
2022-09-28T23:54:50.514Z,4.57
2022-09-28T23:57:16.960Z,5.13
2022-09-28T23:59:43.407Z,4.83
